createdAt,value
2019-05-25T00:01:15.006Z,21.70
2019-05-25T00:03:45.330Z,21.70
2019-05-25T00:06:15.209Z,21.60
2019-05-25T00:08:45.058Z,21.60
2019-05-25T00:11:14.994Z,21.70
2019-05-25T00:13:44.866Z,21.70
2019-05-25T00:16:14.722Z,21.70
2019-05-25T00:18:44.578Z,21.60
2019-05-25T00:21:14.447Z,21.70
2019-05-25T00:23:44.314Z,21.60
2019-05-25T00:26:14.256Z,21.50
2019-05-25T00:28:44.125Z,21.50
2019-05-25T00:31:14.302Z,21.60
2019-05-25T00:33:44.219Z,21.50
2019-05-25T00:36:14.161Z,21.50
2019-05-25T00:38:44.082Z,21.50
2019-05-25T00:41:13.940Z,21.50
2019-05-25T00:43:43.792Z,21.40
2019-05-25T00:46:13.655Z,21.40
2019-05-25T00:48:43.898Z,21.40
2019-05-25T00:51:13.758Z,21.40
2019-05-25T00:53:43.604Z,21.40
2019-05-25T00:56:13.461Z,21.40
2019-05-25T00:58:43.666Z,21.40
2019-05-25T01:01:13.527Z,21.50
2019-05-25T01:03:43.379Z,21.50
2019-05-25T01:06:13.233Z,21.50
2019-05-25T01:08:43.100Z,21.50
2019-05-25T01:11:12.950Z,21.40
2019-05-25T01:13:42.812Z,21.40
2019-05-25T01:16:12.680Z,21.30
2019-05-25T01:18:42.533Z,21.30
2019-05-25T01:21:12.402Z,21.20
2019-05-25T01:23:42.262Z,21.20
2019-05-25T01:26:12.125Z,21.20
2019-05-25T01:28:42.345Z,21.10
2019-05-25T01:31:12.225Z,21.20
2019-05-25T01:33:42.096Z,21.20
2019-05-25T01:36:11.978Z,21.20
2019-05-25T01:38:42.208Z,21.20
2019-05-25T01:41:12.421Z,21.10
2019-05-25T01:43:42.648Z,21.10
2019-05-25T01:46:12.521Z,21.00
2019-05-25T01:48:42.465Z,21.10
2019-05-25T01:51:12.301Z,21.00
2019-05-25T01:53:42.174Z,21.00
2019-05-25T01:56:12.423Z,21.00
2019-05-25T01:58:42.295Z,21.00
2019-05-25T02:01:12.169Z,21.00
2019-05-25T02:03:42.021Z,21.00
2019-05-25T02:06:11.884Z,21.00
2019-05-25T02:08:41.754Z,21.10
2019-05-25T02:11:11.609Z,21.10
2019-05-25T02:13:41.479Z,21.10
2019-05-25T02:16:11.339Z,21.10
2019-05-25T02:18:45.014Z,21.00
2019-05-25T02:21:13.049Z,21.10
2019-05-25T02:23:42.901Z,21.10
2019-05-25T02:26:12.797Z,21.00
2019-05-25T02:28:42.656Z,21.00
2019-05-25T02:31:12.521Z,20.90
2019-05-25T02:33:42.401Z,20.90
2019-05-25T02:36:12.260Z,20.90
2019-05-25T02:38:42.115Z,20.80
2019-05-25T02:41:12.334Z,20.90
2019-05-25T02:43:42.212Z,21.00
2019-05-25T02:46:12.075Z,21.10
2019-05-25T02:48:41.924Z,21.10
2019-05-25T02:51:12.186Z,21.00
2019-05-25T02:53:43.087Z,21.00
2019-05-25T02:56:12.937Z,20.80
2019-05-25T02:58:43.107Z,20.70
2019-05-25T03:01:12.975Z,20.70
2019-05-25T03:03:42.822Z,20.70
2019-05-25T03:06:12.893Z,20.70
2019-05-25T03:08:43.249Z,20.70
2019-05-25T03:11:13.110Z,20.80
2019-05-25T03:13:43.366Z,20.80
2019-05-25T03:16:13.253Z,20.80
2019-05-25T03:18:43.110Z,20.80
2019-05-25T03:21:13.058Z,20.80
2019-05-25T03:23:42.922Z,20.80
2019-05-25T03:26:12.776Z,20.90
2019-05-25T03:28:42.661Z,20.90
2019-05-25T03:31:12.515Z,20.80
2019-05-25T03:33:42.415Z,20.70
2019-05-25T03:36:12.706Z,20.60
2019-05-25T03:38:42.932Z,20.60
2019-05-25T03:41:12.781Z,20.60
2019-05-25T03:43:42.642Z,20.60
2019-05-25T03:46:12.885Z,20.60
2019-05-25T03:48:42.733Z,20.50
2019-05-25T03:51:13.024Z,20.50
2019-05-25T03:53:43.859Z,20.50
2019-05-25T03:56:13.746Z,20.50
2019-05-25T03:58:43.598Z,20.50
2019-05-25T04:01:13.813Z,20.60
2019-05-25T04:03:43.737Z,20.50
2019-05-25T04:06:13.598Z,20.40
2019-05-25T04:08:43.477Z,20.40
2019-05-25T04:11:13.344Z,20.50
2019-05-25T04:13:43.280Z,20.60
2019-05-25T04:16:13.139Z,20.60
2019-05-25T04:18:42.993Z,20.50
2019-05-25T04:21:13.222Z,20.40
2019-05-25T04:23:43.084Z,20.40
2019-05-25T04:26:21.968Z,20.40
2019-05-25T04:28:44.436Z,20.40
2019-05-25T04:31:15.762Z,20.40
2019-05-25T04:33:45.636Z,20.50
2019-05-25T04:36:15.495Z,20.40
2019-05-25T04:38:45.377Z,20.50
2019-05-25T04:41:15.221Z,20.50
2019-05-25T04:43:45.420Z,20.60
2019-05-25T04:46:15.278Z,20.60
2019-05-25T04:48:45.153Z,20.60
2019-05-25T04:51:15.375Z,20.60
2019-05-25T04:53:45.225Z,20.60
2019-05-25T04:56:15.108Z,20.60
2019-05-25T04:58:45.322Z,20.70
2019-05-25T05:01:15.566Z,20.80
2019-05-25T05:03:46.909Z,20.80
2019-05-25T05:06:16.766Z,20.90
2019-05-25T05:08:46.618Z,20.90
2019-05-25T05:11:16.474Z,21.00
2019-05-25T05:13:46.338Z,21.00
2019-05-25T05:16:16.566Z,21.10
2019-05-25T05:18:46.439Z,21.30
2019-05-25T05:21:16.284Z,21.30
2019-05-25T05:23:46.146Z,21.30
2019-05-25T05:26:16.338Z,21.40
2019-05-25T05:28:49.169Z,21.40
2019-05-25T05:31:23.576Z,21.40
2019-05-25T05:33:49.531Z,21.50
2019-05-25T05:36:19.782Z,21.50
2019-05-25T05:38:49.669Z,21.50
2019-05-25T05:41:19.531Z,21.60
2019-05-25T05:43:49.407Z,21.70
2019-05-25T05:46:19.284Z,21.70
2019-05-25T05:48:50.951Z,21.80
2019-05-25T05:51:21.068Z,21.70
2019-05-25T05:53:55.370Z,21.70
2019-05-25T05:56:25.235Z,21.80
2019-05-25T05:58:55.099Z,21.90
2019-05-25T06:01:25.389Z,22.00
2019-05-25T06:03:55.255Z,22.20
2019-05-25T06:06:25.528Z,22.20
2019-05-25T06:08:55.424Z,22.40
2019-05-25T06:11:25.662Z,22.50
2019-05-25T06:13:55.518Z,22.50
2019-05-25T06:16:25.816Z,22.40
2019-05-25T06:18:55.645Z,22.40
2019-05-25T06:21:25.527Z,22.30
2019-05-25T06:23:55.391Z,22.10
2019-05-25T06:26:25.238Z,22.00
2019-05-25T06:28:56.182Z,22.40
2019-05-25T06:31:26.036Z,22.60
2019-05-25T06:33:55.891Z,22.60
2019-05-25T06:36:25.750Z,22.30
2019-05-25T06:38:55.608Z,22.10
2019-05-25T06:41:25.471Z,21.90
2019-05-25T06:43:55.342Z,21.80
2019-05-25T06:46:25.586Z,21.70
2019-05-25T06:48:55.806Z,21.70
2019-05-25T06:51:25.690Z,21.80
2019-05-25T06:53:55.564Z,21.70
2019-05-25T06:56:25.722Z,21.60
2019-05-25T06:58:55.658Z,21.70
2019-05-25T07:01:25.513Z,21.70
2019-05-25T07:03:55.384Z,21.80
2019-05-25T07:06:25.234Z,21.80
2019-05-25T07:08:55.441Z,21.70
2019-05-25T07:11:25.657Z,21.70
2019-05-25T07:13:55.509Z,21.60
2019-05-25T07:16:25.705Z,21.60
2019-05-25T07:18:55.581Z,21.60
2019-05-25T07:21:25.451Z,21.60
2019-05-25T07:23:55.638Z,21.60
2019-05-25T07:26:25.495Z,21.50
2019-05-25T07:28:55.341Z,21.70
2019-05-25T07:31:25.479Z,21.70
2019-05-25T07:33:55.718Z,21.70
2019-05-25T07:36:25.934Z,21.70
2019-05-25T07:38:56.173Z,21.60
2019-05-25T07:41:26.425Z,21.60
2019-05-25T07:43:56.267Z,21.70
2019-05-25T07:46:26.123Z,21.70
2019-05-25T07:48:56.046Z,21.70
2019-05-25T07:51:25.893Z,21.70
2019-05-25T07:53:55.806Z,21.80
2019-05-25T07:56:25.801Z,21.90
2019-05-25T07:58:55.942Z,22.00
2019-05-25T08:01:25.814Z,22.10
2019-05-25T08:03:56.038Z,22.40
2019-05-25T08:06:26.195Z,22.70
2019-05-25T08:08:56.362Z,22.90
2019-05-25T08:11:26.207Z,23.20
2019-05-25T08:13:56.069Z,23.50
2019-05-25T08:16:25.919Z,23.80
2019-05-25T08:18:55.777Z,24.20
2019-05-25T08:21:25.631Z,24.30
2019-05-25T08:23:55.478Z,24.30
2019-05-25T08:26:25.660Z,24.70
2019-05-25T08:28:55.897Z,25.00
2019-05-25T08:31:25.733Z,25.30
2019-05-25T08:33:56.649Z,25.50
2019-05-25T08:36:29.620Z,25.60
2019-05-25T08:38:57.977Z,25.30
2019-05-25T08:41:28.226Z,25.10
2019-05-25T08:43:58.099Z,25.10
2019-05-25T08:46:28.009Z,25.10
2019-05-25T08:48:57.870Z,25.10
2019-05-25T08:51:28.090Z,25.10
2019-05-25T08:53:57.985Z,25.20
2019-05-25T08:56:28.233Z,25.60
2019-05-25T08:58:58.394Z,26.00
2019-05-25T09:01:28.705Z,26.20
2019-05-25T09:03:58.550Z,26.30
2019-05-25T09:06:28.829Z,26.70
2019-05-25T09:08:59.037Z,26.80
2019-05-25T09:11:29.314Z,26.80
2019-05-25T09:13:59.145Z,27.00
2019-05-25T09:16:29.029Z,27.10
2019-05-25T09:18:59.198Z,26.80
2019-05-25T09:21:29.425Z,26.60
2019-05-25T09:23:59.268Z,26.60
2019-05-25T09:26:29.126Z,26.50
2019-05-25T09:29:04.418Z,26.50
2019-05-25T09:31:30.470Z,26.60
2019-05-25T09:34:00.742Z,27.00
2019-05-25T09:36:30.890Z,27.30
2019-05-25T09:39:01.814Z,27.40
2019-05-25T09:41:32.126Z,27.50
2019-05-25T09:44:01.981Z,27.50
2019-05-25T09:46:31.850Z,27.60
2019-05-25T09:49:02.007Z,27.60
2019-05-25T09:51:32.309Z,27.70
2019-05-25T09:54:02.146Z,27.80
2019-05-25T09:56:32.321Z,27.90
2019-05-25T09:59:02.549Z,28.10
2019-05-25T10:01:32.403Z,28.20
2019-05-25T10:04:02.560Z,28.10
2019-05-25T10:06:32.806Z,28.00
2019-05-25T10:09:02.651Z,27.90
2019-05-25T10:11:32.585Z,27.80
2019-05-25T10:14:02.455Z,27.80
2019-05-25T10:16:32.680Z,27.80
2019-05-25T10:19:02.541Z,27.80
2019-05-25T10:21:32.378Z,27.80
2019-05-25T10:24:02.624Z,27.80
2019-05-25T10:26:32.472Z,27.90
2019-05-25T10:29:02.314Z,27.80
2019-05-25T10:31:32.153Z,27.60
2019-05-25T10:34:01.990Z,27.60
2019-05-25T10:36:31.871Z,27.70
2019-05-25T10:39:01.713Z,27.80
2019-05-25T10:41:31.667Z,27.70
2019-05-25T10:44:01.511Z,27.60
2019-05-25T10:46:31.380Z,27.50
2019-05-25T10:49:01.541Z,27.20
2019-05-25T10:51:31.677Z,26.90
2019-05-25T10:54:01.903Z,26.70
2019-05-25T10:56:31.765Z,26.40
2019-05-25T10:59:01.608Z,26.10
2019-05-25T11:01:31.441Z,26.00
2019-05-25T11:04:01.376Z,25.90
2019-05-25T11:06:34.741Z,25.80
2019-05-25T11:09:03.053Z,25.70
2019-05-25T11:11:32.895Z,25.50
2019-05-25T11:14:03.054Z,25.40
2019-05-25T11:16:33.290Z,25.10
2019-05-25T11:19:03.514Z,24.90
2019-05-25T11:21:33.358Z,25.00
2019-05-25T11:24:03.233Z,25.10
2019-05-25T11:26:33.077Z,24.90
2019-05-25T11:29:04.001Z,24.60
2019-05-25T11:31:34.189Z,24.40
2019-05-25T11:34:04.222Z,24.10
2019-05-25T11:36:35.001Z,23.60
2019-05-25T11:39:06.493Z,23.20
2019-05-25T11:41:36.334Z,23.20
2019-05-25T11:44:06.554Z,23.30
2019-05-25T11:46:36.411Z,23.20
2019-05-25T11:49:21.393Z,23.00
2019-05-25T11:51:37.738Z,23.00
2019-05-25T11:54:07.580Z,22.90
2019-05-25T11:56:37.421Z,22.90
2019-05-25T11:59:07.289Z,23.10
2019-05-25T12:01:38.193Z,23.30
2019-05-25T12:04:08.038Z,23.30
2019-05-25T12:06:37.885Z,23.40
2019-05-25T12:09:08.207Z,23.40
2019-05-25T12:11:38.382Z,23.20
2019-05-25T12:14:08.221Z,22.90
2019-05-25T12:16:38.426Z,22.70
2019-05-25T12:19:08.642Z,22.70
2019-05-25T12:21:38.867Z,22.60
2019-05-25T12:24:08.714Z,22.50
2019-05-25T12:26:38.557Z,22.50
2019-05-25T12:29:07.726Z,22.50
2019-05-25T12:31:36.714Z,22.40
2019-05-25T12:34:05.807Z,22.40
2019-05-25T12:36:35.890Z,22.30
2019-05-25T12:39:05.918Z,22.20
2019-05-25T12:41:35.345Z,22.00
2019-05-25T12:44:05.009Z,21.90
2019-05-25T12:46:35.451Z,21.90
2019-05-25T12:49:05.300Z,21.80
2019-05-25T12:51:35.468Z,21.80
2019-05-25T12:54:05.314Z,21.80
2019-05-25T12:56:35.528Z,21.70
2019-05-25T12:59:05.757Z,21.80
2019-05-25T13:01:35.606Z,21.60
2019-05-25T13:04:05.544Z,21.60
2019-05-25T13:06:35.409Z,22.00
2019-05-25T13:09:06.996Z,22.40
2019-05-25T13:11:36.843Z,22.60
2019-05-25T13:14:14.492Z,22.90
2019-05-25T13:16:38.944Z,23.00
2019-05-25T13:19:09.170Z,23.00
2019-05-25T13:21:39.043Z,23.10
2019-05-25T13:24:08.867Z,23.20
2019-05-25T13:26:38.752Z,23.40
2019-05-25T13:29:08.606Z,23.30
2019-05-25T13:31:38.444Z,23.20
2019-05-25T13:34:08.311Z,23.20
2019-05-25T13:36:38.193Z,23.20
2019-05-25T13:39:08.030Z,23.40
2019-05-25T13:41:38.308Z,23.40
2019-05-25T13:44:08.463Z,23.40
2019-05-25T13:46:38.734Z,23.40
2019-05-25T13:49:08.955Z,23.00
2019-05-25T13:51:38.806Z,22.70
2019-05-25T13:54:08.648Z,22.80
2019-05-25T13:56:38.497Z,22.90
2019-05-25T13:59:08.357Z,22.90
2019-05-25T14:01:39.170Z,22.80
2019-05-25T14:04:09.035Z,22.80
2019-05-25T14:06:39.287Z,22.70
2019-05-25T14:09:09.501Z,22.40
2019-05-25T14:11:39.763Z,22.40
2019-05-25T14:14:09.641Z,22.40
2019-05-25T14:16:39.454Z,22.30
2019-05-25T14:19:09.681Z,22.20
2019-05-25T14:21:39.528Z,22.00
2019-05-25T14:24:09.838Z,21.70
2019-05-25T14:26:40.037Z,21.70
2019-05-25T14:29:09.892Z,21.70
2019-05-25T14:31:45.533Z,21.90
2019-05-25T14:34:12.993Z,22.10
2019-05-25T14:36:43.175Z,22.40
2019-05-25T14:39:13.399Z,22.40
2019-05-25T14:41:43.244Z,22.40
2019-05-25T14:44:13.431Z,22.40
2019-05-25T14:46:43.768Z,22.30
2019-05-25T14:49:13.982Z,22.30
2019-05-25T14:51:43.822Z,22.40
2019-05-25T14:54:14.115Z,22.40
2019-05-25T14:56:43.966Z,22.50
2019-05-25T14:59:14.145Z,22.40
2019-05-25T15:01:44.015Z,22.30
2019-05-25T15:04:14.184Z,22.30
2019-05-25T15:06:44.030Z,22.30
2019-05-25T15:09:14.224Z,22.30
2019-05-25T15:11:44.380Z,22.20
2019-05-25T15:14:15.209Z,22.30
2019-05-25T15:16:45.145Z,22.30
2019-05-25T15:19:15.021Z,22.30
2019-05-25T15:21:44.960Z,22.40
2019-05-25T15:24:15.009Z,22.60
2019-05-25T15:26:45.270Z,22.60
2019-05-25T15:29:15.113Z,22.70
2019-05-25T15:31:44.962Z,22.70
2019-05-25T15:34:14.805Z,22.80
2019-05-25T15:36:44.659Z,22.70
2019-05-25T15:39:14.855Z,22.80
2019-05-25T15:41:45.067Z,22.90
2019-05-25T15:44:14.896Z,22.90
2019-05-25T15:46:44.855Z,22.90
2019-05-25T15:49:15.220Z,22.80
2019-05-25T15:51:45.139Z,22.70
2019-05-25T15:54:16.046Z,22.70
2019-05-25T15:56:46.308Z,22.70
2019-05-25T15:59:16.150Z,22.70
2019-05-25T16:01:45.989Z,22.80
2019-05-25T16:04:15.915Z,22.90
2019-05-25T16:06:46.155Z,22.90
2019-05-25T16:09:16.074Z,22.90
2019-05-25T16:11:46.296Z,23.00
2019-05-25T16:14:16.133Z,22.90
2019-05-25T16:16:45.978Z,22.90
2019-05-25T16:19:15.849Z,22.70
2019-05-25T16:21:45.700Z,22.50
2019-05-25T16:24:15.965Z,22.50
2019-05-25T16:26:46.737Z,22.40
2019-05-25T16:29:16.772Z,22.60
2019-05-25T16:31:46.615Z,22.60
2019-05-25T16:34:16.868Z,22.60
2019-05-25T16:36:46.737Z,22.60
2019-05-25T16:39:16.661Z,22.50
2019-05-25T16:41:46.521Z,22.50
2019-05-25T16:44:16.450Z,22.50
2019-05-25T16:46:46.296Z,22.60
2019-05-25T16:49:16.189Z,22.60
2019-05-25T16:51:46.401Z,22.50
2019-05-25T16:54:16.581Z,22.50
2019-05-25T16:56:46.505Z,22.60
2019-05-25T16:59:16.718Z,22.70
2019-05-25T17:01:48.619Z,22.60
2019-05-25T17:04:18.038Z,22.70
2019-05-25T17:06:47.881Z,22.70
2019-05-25T17:09:17.741Z,22.80
2019-05-25T17:11:47.925Z,22.90
2019-05-25T17:14:18.173Z,23.00
2019-05-25T17:16:48.019Z,23.10
2019-05-25T17:19:18.191Z,23.10
2019-05-25T17:21:48.039Z,23.00
2019-05-25T17:24:17.882Z,23.10
2019-05-25T17:26:47.726Z,23.10
2019-05-25T17:29:17.586Z,23.20
2019-05-25T17:31:47.764Z,23.20
2019-05-25T17:34:17.986Z,23.20
2019-05-25T17:36:47.826Z,23.10
2019-05-25T17:39:18.008Z,23.00
2019-05-25T17:41:48.142Z,23.00
2019-05-25T17:44:17.983Z,23.10
2019-05-25T17:46:47.845Z,23.20
2019-05-25T17:49:17.687Z,23.20
2019-05-25T17:51:47.526Z,23.20
2019-05-25T17:54:17.370Z,23.20
2019-05-25T17:56:47.636Z,23.10
2019-05-25T17:59:17.490Z,23.20
2019-05-25T18:01:47.781Z,23.20
2019-05-25T18:04:17.703Z,23.20
2019-05-25T18:06:47.573Z,23.10
2019-05-25T18:09:17.822Z,23.20
2019-05-25T18:11:47.878Z,23.20
2019-05-25T18:14:17.729Z,23.20
2019-05-25T18:16:47.595Z,23.20
2019-05-25T18:19:17.901Z,23.20
2019-05-25T18:21:48.114Z,23.20
2019-05-25T18:24:18.356Z,23.20
2019-05-25T18:26:48.221Z,23.30
2019-05-25T18:29:18.470Z,23.30
2019-05-25T18:31:48.351Z,23.20
2019-05-25T18:34:22.180Z,23.10
2019-05-25T18:36:49.682Z,23.00
2019-05-25T18:39:19.542Z,22.90
2019-05-25T18:41:49.402Z,23.10
2019-05-25T18:44:19.254Z,23.10
2019-05-25T18:46:49.110Z,23.00
2019-05-25T18:49:19.365Z,22.70
2019-05-25T18:51:49.347Z,22.50
2019-05-25T18:54:19.666Z,22.40
2019-05-25T18:56:49.547Z,22.30
2019-05-25T18:59:19.808Z,22.30
2019-05-25T19:01:49.655Z,22.30
2019-05-25T19:04:19.946Z,22.50
2019-05-25T19:06:50.163Z,22.50
2019-05-25T19:09:20.013Z,22.50
2019-05-25T19:11:49.869Z,22.40
2019-05-25T19:14:19.730Z,22.50
2019-05-25T19:16:49.941Z,22.40
2019-05-25T19:19:19.818Z,22.40
2019-05-25T19:21:49.979Z,22.40
2019-05-25T19:24:19.829Z,22.20
2019-05-25T19:26:50.043Z,22.10
2019-05-25T19:29:19.891Z,22.00
2019-05-25T19:31:49.763Z,21.90
2019-05-25T19:34:19.619Z,21.90
2019-05-25T19:36:49.472Z,21.90
2019-05-25T19:39:19.327Z,21.80
2019-05-25T19:41:49.178Z,21.60
2019-05-25T19:44:19.109Z,21.70
2019-05-25T19:46:48.966Z,21.70
2019-05-25T19:49:18.815Z,21.70
2019-05-25T19:51:48.681Z,21.60
2019-05-25T19:54:18.534Z,21.50
2019-05-25T19:56:48.795Z,21.50
2019-05-25T19:59:18.637Z,21.50
2019-05-25T20:01:47.822Z,21.40
2019-05-25T20:04:16.805Z,21.50
2019-05-25T20:06:46.895Z,21.50
2019-05-25T20:09:16.418Z,21.50
2019-05-25T20:11:46.095Z,21.40
2019-05-25T20:14:15.941Z,21.30
2019-05-25T20:16:45.806Z,21.30
2019-05-25T20:19:15.651Z,21.30
2019-05-25T20:21:46.004Z,21.30
2019-05-25T20:24:16.126Z,21.20
2019-05-25T20:26:45.130Z,21.10
2019-05-25T20:29:14.507Z,21.10
2019-05-25T20:31:43.495Z,21.00
2019-05-25T20:34:12.797Z,20.80
2019-05-25T20:36:42.545Z,20.70
2019-05-25T20:39:12.415Z,20.80
2019-05-25T20:41:42.254Z,20.80
2019-05-25T20:44:12.120Z,20.80
2019-05-25T20:46:42.395Z,20.90
2019-05-25T20:49:12.231Z,20.90
2019-05-25T20:51:42.146Z,20.90
2019-05-25T20:54:11.991Z,20.80
2019-05-25T20:56:41.908Z,20.90
2019-05-25T20:59:11.747Z,20.80
2019-05-25T21:01:42.057Z,20.70
2019-05-25T21:04:12.374Z,20.70
2019-05-25T21:06:42.608Z,20.80
2019-05-25T21:09:12.452Z,20.60
2019-05-25T21:11:42.323Z,20.60
2019-05-25T21:14:12.166Z,20.60
2019-05-25T21:16:42.017Z,20.60
2019-05-25T21:19:11.576Z,20.70
2019-05-25T21:21:40.564Z,20.70
2019-05-25T21:24:09.549Z,20.60
2019-05-25T21:26:38.542Z,20.70
2019-05-25T21:29:07.531Z,20.80
2019-05-25T21:31:36.526Z,20.70
2019-05-25T21:34:05.850Z,20.80
2019-05-25T21:36:34.838Z,20.80
2019-05-25T21:39:05.598Z,20.80
2019-05-25T21:41:34.734Z,20.80
2019-05-25T21:44:03.749Z,20.70
2019-05-25T21:46:32.744Z,20.70
2019-05-25T21:49:01.726Z,20.70
2019-05-25T21:51:30.723Z,20.60
2019-05-25T21:54:00.143Z,20.50
2019-05-25T21:56:29.557Z,20.40
2019-05-25T21:58:58.547Z,20.60
2019-05-25T22:01:27.905Z,20.60
2019-05-25T22:03:57.354Z,20.70
2019-05-25T22:06:27.778Z,20.80
2019-05-25T22:08:56.802Z,20.80
2019-05-25T22:11:26.200Z,20.60
2019-05-25T22:13:55.573Z,20.50
2019-05-25T22:16:24.725Z,20.50
2019-05-25T22:18:53.689Z,20.60
2019-05-25T22:21:22.660Z,20.50
2019-05-25T22:23:51.628Z,20.50
2019-05-25T22:26:20.613Z,20.30
2019-05-25T22:28:49.588Z,20.20
2019-05-25T22:31:18.578Z,20.20
2019-05-25T22:33:47.911Z,20.20
2019-05-25T22:39:05.385Z,20.30
2019-05-25T22:41:34.897Z,20.20
2019-05-25T22:44:04.135Z,20.20
2019-05-25T22:46:33.197Z,20.30
2019-05-25T22:49:02.299Z,20.30
2019-05-25T22:51:31.296Z,20.30
2019-05-25T22:54:00.653Z,20.30
2019-05-25T22:56:29.664Z,20.30
2019-05-25T22:58:58.761Z,20.30
2019-05-25T23:01:27.749Z,20.20
2019-05-25T23:03:56.725Z,20.10
2019-05-25T23:06:25.777Z,20.10
2019-05-25T23:08:55.589Z,20.00
2019-05-25T23:11:24.946Z,20.00
2019-05-25T23:13:53.970Z,20.10
2019-05-25T23:16:22.958Z,20.20
2019-05-25T23:18:52.338Z,20.30
2019-05-25T23:21:21.703Z,20.50
2019-05-25T23:23:51.138Z,20.40
2019-05-25T23:26:20.166Z,20.40
2019-05-25T23:28:49.538Z,20.30
2019-05-25T23:31:18.597Z,20.30
2019-05-25T23:33:47.580Z,20.40
2019-05-25T23:36:16.569Z,20.30
2019-05-25T23:38:45.561Z,20.20
2019-05-25T23:41:14.541Z,20.20
2019-05-25T23:43:43.551Z,20.30
2019-05-25T23:46:13.001Z,20.20
2019-05-25T23:48:42.004Z,20.30
2019-05-25T23:51:10.981Z,20.10
2019-05-25T23:53:40.459Z,20.00
2019-05-25T23:56:09.446Z,20.00
2019-05-25T23:58:38.805Z,20.00
